WAT4046 KACY-KFLL
Flight info
| Callsign | WAT4046 |
|---|---|
| Flight time | 2h 11m |
| Altitude | 36000 |
| Route | LEEAH ATR TRPOD Q409 CRPLR KOOKI Q161 CHIEZ Y291 MAJIK CUUDA3 |
| Aircraft | A320/M-SDE3FGHIRWY/LB1 |
Departure
| Time | 2026-05-08 04:37 |
|---|---|
| Airport | Atlantic City International Airport (KACY) |
Arrival
| Time | 2026-05-08 06:48 |
|---|---|
| Airport | Fort Lauderdale Hollywood International Airport (KFLL) |
| Time | Latitude | Longitude | Altitude | Speed | Heading |
|---|---|---|---|---|---|
| 2026-05-08 04:23 | 39.44923 | -74.56308 | 79 ft | 0 kts | 204° |
| 2026-05-08 04:27 | 39.44926 | -74.56306 | 79 ft | 3 kts | 201° |
| 2026-05-08 04:27 | 39.44947 | -74.56305 | 83 ft | 4 kts | 137° |
| 2026-05-08 04:28 | 39.44960 | -74.56327 | 79 ft | 1 kts | 116° |
| 2026-05-08 04:28 | 39.44961 | -74.56331 | 79 ft | 0 kts | 116° |
| 2026-05-08 04:35 | 39.44961 | -74.56329 | 79 ft | 0 kts | 105° |
| 2026-05-08 04:35 | 39.44964 | -74.56322 | 83 ft | 2 kts | 79° |
| 2026-05-08 04:35 | 39.44967 | -74.56294 | 79 ft | 4 kts | 86° |
| 2026-05-08 04:35 | 39.44955 | -74.56246 | 79 ft | 7 kts | 111° |
| 2026-05-08 04:36 | 39.44962 | -74.56177 | 83 ft | 9 kts | 50° |
| 2026-05-08 04:36 | 39.45021 | -74.56118 | 79 ft | 12 kts | 37° |
| 2026-05-08 04:36 | 39.45101 | -74.56048 | 72 ft | 16 kts | 28° |
| 2026-05-08 04:36 | 39.45194 | -74.56120 | 71 ft | 24 kts | 302° |
| 2026-05-08 04:37 | 39.45420 | -74.56673 | 69 ft | 112 kts | 298° |
| 2026-05-08 04:37 | 39.45901 | -74.57820 | 92 ft | 174 kts | 300° |
| 2026-05-08 04:37 | 39.46445 | -74.59203 | 898 ft | 167 kts | 297° |
| 2026-05-08 04:37 | 39.46958 | -74.60535 | 1559 ft | 165 kts | 300° |
| 2026-05-08 04:38 | 39.47309 | -74.61965 | 2018 ft | 179 kts | 267° |
| 2026-05-08 04:38 | 39.46749 | -74.63502 | 2253 ft | 206 kts | 230° |
| 2026-05-08 04:38 | 39.45757 | -74.64984 | 2554 ft | 230 kts | 230° |
| 2026-05-08 04:38 | 39.44651 | -74.66627 | 2924 ft | 254 kts | 230° |
| 2026-05-08 04:39 | 39.43445 | -74.68442 | 3411 ft | 274 kts | 231° |
| 2026-05-08 04:39 | 39.42196 | -74.70348 | 4187 ft | 281 kts | 231° |
| 2026-05-08 04:39 | 39.40931 | -74.72294 | 5051 ft | 285 kts | 232° |
| 2026-05-08 04:39 | 39.39654 | -74.74267 | 5929 ft | 288 kts | 233° |
| 2026-05-08 04:40 | 39.38364 | -74.76266 | 6773 ft | 291 kts | 233° |
| 2026-05-08 04:40 | 39.37062 | -74.78289 | 7628 ft | 295 kts | 234° |
| 2026-05-08 04:40 | 39.35742 | -74.80337 | 8456 ft | 298 kts | 234° |
| 2026-05-08 04:40 | 39.34408 | -74.82413 | 9272 ft | 301 kts | 234° |
| 2026-05-08 04:41 | 39.33063 | -74.84502 | 10073 ft | 304 kts | 234° |
| 2026-05-08 04:41 | 39.32152 | -74.85916 | 10349 ft | 317 kts | 235° |
| 2026-05-08 04:41 | 39.30180 | -74.88987 | 10658 ft | 345 kts | 235° |
| 2026-05-08 04:41 | 39.28650 | -74.91371 | 11229 ft | 353 kts | 235° |
| 2026-05-08 04:42 | 39.27000 | -74.93757 | 11910 ft | 360 kts | 228° |
| 2026-05-08 04:42 | 39.25005 | -74.95763 | 12585 ft | 369 kts | 217° |
| 2026-05-08 04:42 | 39.22692 | -74.97286 | 13253 ft | 376 kts | 208° |
| 2026-05-08 04:42 | 39.20291 | -74.98651 | 13920 ft | 379 kts | 208° |
| 2026-05-08 04:43 | 39.17870 | -75.00030 | 14577 ft | 381 kts | 209° |
| 2026-05-08 04:43 | 39.15438 | -75.01422 | 15206 ft | 384 kts | 209° |
| 2026-05-08 04:43 | 39.12994 | -75.02828 | 15813 ft | 386 kts | 210° |
| 2026-05-08 04:43 | 39.10535 | -75.04245 | 16405 ft | 389 kts | 210° |
| 2026-05-08 04:44 | 39.08059 | -75.05668 | 16962 ft | 391 kts | 210° |
| 2026-05-08 04:44 | 39.05563 | -75.07100 | 17526 ft | 394 kts | 210° |
| 2026-05-08 04:44 | 39.03049 | -75.08541 | 18080 ft | 397 kts | 210° |
| 2026-05-08 04:44 | 39.00518 | -75.09991 | 18625 ft | 400 kts | 210° |
| 2026-05-08 04:45 | 38.97968 | -75.11451 | 19179 ft | 403 kts | 210° |
| 2026-05-08 04:45 | 38.95403 | -75.12919 | 19722 ft | 405 kts | 211° |
| 2026-05-08 04:45 | 38.92819 | -75.14399 | 20248 ft | 408 kts | 211° |
| 2026-05-08 04:45 | 38.90211 | -75.15888 | 20770 ft | 411 kts | 211° |
| 2026-05-08 04:46 | 38.87592 | -75.17379 | 21260 ft | 413 kts | 211° |
| 2026-05-08 04:46 | 38.84953 | -75.18880 | 21735 ft | 416 kts | 211° |
| 2026-05-08 04:46 | 38.82299 | -75.20390 | 22190 ft | 418 kts | 211° |
| 2026-05-08 04:46 | 38.79650 | -75.21944 | 22630 ft | 419 kts | 213° |
| 2026-05-08 04:47 | 38.77048 | -75.23629 | 23062 ft | 420 kts | 216° |
| 2026-05-08 04:47 | 38.74479 | -75.25412 | 23496 ft | 421 kts | 217° |
| 2026-05-08 04:47 | 38.71916 | -75.27252 | 23919 ft | 423 kts | 217° |
| 2026-05-08 04:47 | 38.69341 | -75.29106 | 24351 ft | 425 kts | 217° |
| 2026-05-08 04:48 | 38.66746 | -75.30947 | 24778 ft | 427 kts | 217° |
| 2026-05-08 04:48 | 38.64126 | -75.32769 | 25185 ft | 430 kts | 216° |
| 2026-05-08 04:48 | 38.61485 | -75.34579 | 25588 ft | 432 kts | 216° |
| 2026-05-08 04:48 | 38.58825 | -75.36390 | 25978 ft | 434 kts | 216° |
| 2026-05-08 04:49 | 38.56156 | -75.38205 | 26344 ft | 436 kts | 216° |
| 2026-05-08 04:49 | 38.53475 | -75.40036 | 26715 ft | 438 kts | 216° |
| 2026-05-08 04:49 | 38.50783 | -75.41879 | 27073 ft | 440 kts | 216° |
| 2026-05-08 04:49 | 38.48082 | -75.43726 | 27429 ft | 442 kts | 216° |
| 2026-05-08 04:50 | 38.45400 | -75.45555 | 27789 ft | 444 kts | 216° |
| 2026-05-08 04:50 | 38.42637 | -75.47437 | 28175 ft | 445 kts | 216° |
| 2026-05-08 04:50 | 38.39932 | -75.49280 | 28520 ft | 447 kts | 216° |
| 2026-05-08 04:50 | 38.37180 | -75.51155 | 28872 ft | 449 kts | 216° |
| 2026-05-08 04:51 | 38.34432 | -75.53039 | 29195 ft | 449 kts | 218° |
| 2026-05-08 04:51 | 38.31822 | -75.55189 | 29501 ft | 446 kts | 223° |
| 2026-05-08 04:51 | 38.29260 | -75.57431 | 29816 ft | 447 kts | 223° |
| 2026-05-08 04:51 | 38.26691 | -75.59677 | 30141 ft | 449 kts | 223° |
| 2026-05-08 04:52 | 38.24108 | -75.61932 | 30481 ft | 450 kts | 223° |
| 2026-05-08 04:52 | 38.21529 | -75.64176 | 30935 ft | 449 kts | 223° |
| 2026-05-08 04:52 | 38.18958 | -75.66411 | 31377 ft | 447 kts | 222° |
| 2026-05-08 04:52 | 38.16388 | -75.68639 | 31819 ft | 446 kts | 222° |
| 2026-05-08 04:53 | 38.13829 | -75.70860 | 32233 ft | 445 kts | 222° |
| 2026-05-08 04:53 | 38.11279 | -75.73076 | 32649 ft | 444 kts | 222° |
| 2026-05-08 04:53 | 38.08730 | -75.75286 | 33054 ft | 443 kts | 222° |
| 2026-05-08 04:53 | 38.06190 | -75.77485 | 33467 ft | 442 kts | 221° |
| 2026-05-08 04:54 | 38.03653 | -75.79678 | 33870 ft | 441 kts | 221° |
| 2026-05-08 04:54 | 38.01122 | -75.81865 | 34266 ft | 440 kts | 221° |
| 2026-05-08 04:54 | 37.98599 | -75.84043 | 34668 ft | 438 kts | 221° |
| 2026-05-08 04:54 | 37.96079 | -75.86220 | 35041 ft | 438 kts | 221° |
| 2026-05-08 04:55 | 37.93567 | -75.88391 | 35414 ft | 436 kts | 222° |
| 2026-05-08 04:55 | 37.91061 | -75.90551 | 35775 ft | 435 kts | 222° |
| 2026-05-08 04:55 | 37.88561 | -75.92701 | 36108 ft | 435 kts | 222° |
| 2026-05-08 04:55 | 37.86060 | -75.94854 | 36206 ft | 436 kts | 222° |
| 2026-05-08 04:56 | 37.81030 | -75.99178 | 36220 ft | 438 kts | 222° |
| 2026-05-08 04:56 | 37.75992 | -76.03497 | 36229 ft | 438 kts | 222° |
| 2026-05-08 04:57 | 37.70949 | -76.07815 | 36229 ft | 438 kts | 222° |
| 2026-05-08 04:57 | 37.66758 | -76.11406 | 36229 ft | 438 kts | 222° |
| 2026-05-08 04:58 | 37.61637 | -76.15596 | 36232 ft | 445 kts | 215° |
| 2026-05-08 04:58 | 37.55690 | -76.18217 | 36234 ft | 460 kts | 202° |
| 2026-05-08 04:59 | 37.48481 | -76.20504 | 36234 ft | 460 kts | 202° |
| 2026-05-08 04:59 | 37.43282 | -76.22157 | 36235 ft | 460 kts | 202° |
| 2026-05-08 05:00 | 37.37076 | -76.24134 | 36238 ft | 460 kts | 202° |
| 2026-05-08 05:00 | 37.30866 | -76.26110 | 36237 ft | 460 kts | 202° |
| 2026-05-08 05:01 | 37.24697 | -76.28073 | 36234 ft | 460 kts | 202° |
| 2026-05-08 05:01 | 37.18488 | -76.30051 | 36226 ft | 460 kts | 202° |
| 2026-05-08 05:02 | 37.12276 | -76.32023 | 36221 ft | 461 kts | 202° |
| 2026-05-08 05:02 | 37.06052 | -76.33983 | 36222 ft | 461 kts | 202° |
| 2026-05-08 05:03 | 36.99824 | -76.35935 | 36225 ft | 461 kts | 202° |
| 2026-05-08 05:03 | 36.93608 | -76.37899 | 36229 ft | 461 kts | 202° |
| 2026-05-08 05:04 | 36.87383 | -76.39864 | 36233 ft | 461 kts | 202° |
| 2026-05-08 05:04 | 36.81162 | -76.41822 | 36236 ft | 461 kts | 202° |
| 2026-05-08 05:05 | 36.74937 | -76.43765 | 36240 ft | 461 kts | 202° |
| 2026-05-08 05:05 | 36.68723 | -76.45709 | 36239 ft | 461 kts | 202° |
| 2026-05-08 05:06 | 36.62507 | -76.47653 | 36244 ft | 460 kts | 202° |
| 2026-05-08 05:06 | 36.56296 | -76.49592 | 36243 ft | 460 kts | 202° |
| 2026-05-08 05:07 | 36.50123 | -76.51517 | 36239 ft | 460 kts | 202° |
| 2026-05-08 05:07 | 36.43918 | -76.53448 | 36235 ft | 460 kts | 202° |
| 2026-05-08 05:08 | 36.37717 | -76.55374 | 36235 ft | 459 kts | 202° |
| 2026-05-08 05:08 | 36.31519 | -76.57289 | 36232 ft | 459 kts | 202° |
| 2026-05-08 05:09 | 36.25322 | -76.59207 | 36232 ft | 459 kts | 202° |
| 2026-05-08 05:09 | 36.19129 | -76.61121 | 36227 ft | 459 kts | 202° |
| 2026-05-08 05:10 | 36.09837 | -76.63986 | 36223 ft | 459 kts | 202° |
| 2026-05-08 05:11 | 36.03634 | -76.65898 | 36224 ft | 459 kts | 202° |
| 2026-05-08 05:11 | 35.97435 | -76.67809 | 36224 ft | 459 kts | 202° |
| 2026-05-08 05:12 | 35.91254 | -76.69785 | 36222 ft | 454 kts | 207° |
| 2026-05-08 05:12 | 35.85623 | -76.72927 | 36223 ft | 445 kts | 214° |
| 2026-05-08 05:13 | 35.80072 | -76.76324 | 36221 ft | 446 kts | 214° |
| 2026-05-08 05:13 | 35.74512 | -76.79717 | 36219 ft | 446 kts | 214° |
| 2026-05-08 05:14 | 35.68953 | -76.83105 | 36216 ft | 446 kts | 214° |
| 2026-05-08 05:14 | 35.63391 | -76.86492 | 36215 ft | 446 kts | 214° |
| 2026-05-08 05:15 | 35.57824 | -76.89872 | 36213 ft | 446 kts | 214° |
| 2026-05-08 05:15 | 35.52262 | -76.93264 | 36211 ft | 446 kts | 214° |
| 2026-05-08 05:16 | 35.46714 | -76.96678 | 36210 ft | 446 kts | 215° |
| 2026-05-08 05:16 | 35.42103 | -76.99510 | 36210 ft | 446 kts | 214° |
| 2026-05-08 05:17 | 35.35609 | -77.03477 | 36206 ft | 446 kts | 214° |
| 2026-05-08 05:17 | 35.30045 | -77.06870 | 36203 ft | 447 kts | 214° |
| 2026-05-08 05:18 | 35.24482 | -77.10264 | 36201 ft | 447 kts | 214° |
| 2026-05-08 05:18 | 35.18911 | -77.13654 | 36201 ft | 447 kts | 214° |
| 2026-05-08 05:19 | 35.13338 | -77.17046 | 36204 ft | 448 kts | 214° |
| 2026-05-08 05:19 | 35.07753 | -77.20427 | 36205 ft | 448 kts | 214° |
| 2026-05-08 05:20 | 35.02287 | -77.23731 | 36205 ft | 448 kts | 214° |
| 2026-05-08 05:20 | 34.96708 | -77.27107 | 36205 ft | 448 kts | 214° |
| 2026-05-08 05:21 | 34.91128 | -77.30471 | 36200 ft | 447 kts | 214° |
| 2026-05-08 05:21 | 34.85548 | -77.33830 | 36190 ft | 447 kts | 214° |
| 2026-05-08 05:22 | 34.79966 | -77.37192 | 36183 ft | 448 kts | 214° |
| 2026-05-08 05:22 | 34.74413 | -77.40529 | 36188 ft | 448 kts | 214° |
| 2026-05-08 05:23 | 34.68821 | -77.43878 | 36181 ft | 448 kts | 214° |
| 2026-05-08 05:23 | 34.63225 | -77.47233 | 36183 ft | 448 kts | 214° |
| 2026-05-08 05:24 | 34.57627 | -77.50584 | 36183 ft | 448 kts | 214° |
| 2026-05-08 05:24 | 34.51940 | -77.53765 | 36190 ft | 457 kts | 206° |
| 2026-05-08 05:25 | 34.45639 | -77.55436 | 36183 ft | 467 kts | 198° |
| 2026-05-08 05:25 | 34.39246 | -77.56827 | 36181 ft | 467 kts | 198° |
| 2026-05-08 05:26 | 34.32849 | -77.58235 | 36181 ft | 467 kts | 198° |
| 2026-05-08 05:26 | 34.26447 | -77.59650 | 36184 ft | 468 kts | 198° |
| 2026-05-08 05:27 | 34.20047 | -77.61060 | 36179 ft | 468 kts | 198° |
| 2026-05-08 05:27 | 34.13642 | -77.62468 | 36180 ft | 468 kts | 198° |
| 2026-05-08 05:28 | 34.07238 | -77.63876 | 36178 ft | 468 kts | 198° |
| 2026-05-08 05:28 | 34.00836 | -77.65276 | 36176 ft | 468 kts | 198° |
| 2026-05-08 05:29 | 33.94432 | -77.66665 | 36174 ft | 468 kts | 198° |
| 2026-05-08 05:29 | 33.88033 | -77.68066 | 36175 ft | 467 kts | 198° |
| 2026-05-08 05:30 | 33.81675 | -77.69463 | 36173 ft | 467 kts | 198° |
| 2026-05-08 05:30 | 33.75275 | -77.70861 | 36168 ft | 467 kts | 198° |
| 2026-05-08 05:31 | 33.68879 | -77.72261 | 36167 ft | 466 kts | 200° |
| 2026-05-08 05:31 | 33.62651 | -77.74233 | 36166 ft | 462 kts | 203° |
| 2026-05-08 05:32 | 33.56452 | -77.76262 | 36167 ft | 462 kts | 203° |
| 2026-05-08 05:32 | 33.50234 | -77.78293 | 36168 ft | 462 kts | 203° |
| 2026-05-08 05:33 | 33.44037 | -77.80320 | 36169 ft | 462 kts | 203° |
| 2026-05-08 05:33 | 33.37882 | -77.82326 | 36168 ft | 462 kts | 203° |
| 2026-05-08 05:34 | 33.31677 | -77.84337 | 36170 ft | 461 kts | 203° |
| 2026-05-08 05:34 | 33.25477 | -77.86352 | 36168 ft | 461 kts | 203° |
| 2026-05-08 05:35 | 33.19283 | -77.88364 | 36168 ft | 461 kts | 203° |
| 2026-05-08 05:35 | 33.13118 | -77.90357 | 36165 ft | 461 kts | 203° |
| 2026-05-08 05:36 | 33.06922 | -77.92359 | 36166 ft | 461 kts | 203° |
| 2026-05-08 05:36 | 33.00511 | -77.94465 | 36165 ft | 460 kts | 204° |
| 2026-05-08 05:37 | 32.94356 | -77.96581 | 36165 ft | 460 kts | 204° |
| 2026-05-08 05:37 | 32.88215 | -77.98714 | 36164 ft | 460 kts | 204° |
| 2026-05-08 05:38 | 32.82059 | -78.00822 | 36163 ft | 460 kts | 204° |
| 2026-05-08 05:38 | 32.75900 | -78.02921 | 36156 ft | 461 kts | 204° |
| 2026-05-08 05:39 | 32.69723 | -78.05008 | 36157 ft | 461 kts | 204° |
| 2026-05-08 05:39 | 32.63556 | -78.07102 | 36160 ft | 461 kts | 204° |
| 2026-05-08 05:40 | 32.57389 | -78.09206 | 36161 ft | 461 kts | 204° |
| 2026-05-08 05:40 | 32.52263 | -78.10950 | 36163 ft | 461 kts | 204° |
| 2026-05-08 05:41 | 32.45092 | -78.13376 | 36167 ft | 461 kts | 203° |
| 2026-05-08 05:41 | 32.38914 | -78.15446 | 36170 ft | 461 kts | 203° |
| 2026-05-08 05:42 | 32.33743 | -78.17191 | 36169 ft | 461 kts | 204° |
| 2026-05-08 05:42 | 32.27571 | -78.19281 | 36167 ft | 461 kts | 204° |
| 2026-05-08 05:43 | 32.21444 | -78.21357 | 36165 ft | 461 kts | 203° |
| 2026-05-08 05:43 | 32.15271 | -78.23430 | 36161 ft | 461 kts | 203° |
| 2026-05-08 05:44 | 32.09090 | -78.25488 | 36159 ft | 461 kts | 203° |
| 2026-05-08 05:44 | 32.02912 | -78.27553 | 36157 ft | 461 kts | 203° |
| 2026-05-08 05:45 | 31.96739 | -78.29626 | 36161 ft | 461 kts | 203° |
| 2026-05-08 05:45 | 31.90568 | -78.31694 | 36166 ft | 461 kts | 203° |
| 2026-05-08 05:46 | 31.84396 | -78.33750 | 36168 ft | 461 kts | 203° |
| 2026-05-08 05:46 | 31.78229 | -78.35802 | 36168 ft | 460 kts | 203° |
| 2026-05-08 05:47 | 31.72103 | -78.37848 | 36168 ft | 460 kts | 203° |
| 2026-05-08 05:47 | 31.65939 | -78.39899 | 36166 ft | 460 kts | 203° |
| 2026-05-08 05:48 | 31.59775 | -78.41946 | 36171 ft | 460 kts | 203° |
| 2026-05-08 05:48 | 31.53614 | -78.43990 | 36170 ft | 460 kts | 203° |
| 2026-05-08 05:49 | 31.47453 | -78.46010 | 36170 ft | 460 kts | 203° |
| 2026-05-08 05:49 | 31.41282 | -78.48002 | 36172 ft | 460 kts | 203° |
| 2026-05-08 05:50 | 31.35116 | -78.49997 | 36169 ft | 459 kts | 203° |
| 2026-05-08 05:50 | 31.28954 | -78.51994 | 36174 ft | 459 kts | 202° |
| 2026-05-08 05:51 | 31.22798 | -78.53978 | 36173 ft | 459 kts | 202° |
| 2026-05-08 05:51 | 31.16645 | -78.55963 | 36173 ft | 458 kts | 203° |
| 2026-05-08 05:52 | 31.10501 | -78.57948 | 36171 ft | 458 kts | 202° |
| 2026-05-08 05:52 | 31.04356 | -78.59925 | 36170 ft | 458 kts | 202° |
| 2026-05-08 05:53 | 30.98261 | -78.61888 | 36166 ft | 457 kts | 202° |
| 2026-05-08 05:53 | 30.92125 | -78.63851 | 36163 ft | 457 kts | 202° |
| 2026-05-08 05:54 | 30.85994 | -78.65817 | 36164 ft | 457 kts | 202° |
| 2026-05-08 05:54 | 30.79872 | -78.67794 | 36163 ft | 456 kts | 202° |
| 2026-05-08 05:55 | 30.73736 | -78.69746 | 36166 ft | 457 kts | 202° |
| 2026-05-08 05:55 | 30.67608 | -78.71697 | 36168 ft | 456 kts | 202° |
| 2026-05-08 05:56 | 30.61488 | -78.73662 | 36168 ft | 456 kts | 202° |
| 2026-05-08 05:56 | 30.55365 | -78.75613 | 36166 ft | 456 kts | 202° |
| 2026-05-08 05:57 | 30.49290 | -78.77543 | 36164 ft | 455 kts | 202° |
| 2026-05-08 05:57 | 30.43184 | -78.79480 | 36164 ft | 455 kts | 202° |
| 2026-05-08 05:58 | 30.37084 | -78.81415 | 36154 ft | 454 kts | 202° |
| 2026-05-08 05:58 | 30.30988 | -78.83353 | 36145 ft | 454 kts | 202° |
| 2026-05-08 05:59 | 30.24891 | -78.85277 | 36134 ft | 454 kts | 202° |
| 2026-05-08 05:59 | 30.18798 | -78.87193 | 36134 ft | 454 kts | 202° |
| 2026-05-08 06:00 | 30.12748 | -78.89104 | 36131 ft | 453 kts | 202° |
| 2026-05-08 06:00 | 30.06659 | -78.91038 | 36124 ft | 454 kts | 202° |
| 2026-05-08 06:01 | 30.00568 | -78.92965 | 36126 ft | 454 kts | 202° |
| 2026-05-08 06:01 | 29.94489 | -78.94903 | 36126 ft | 453 kts | 202° |
| 2026-05-08 06:02 | 29.88430 | -78.96856 | 36124 ft | 452 kts | 202° |
| 2026-05-08 06:02 | 29.82380 | -78.98807 | 36124 ft | 451 kts | 202° |
| 2026-05-08 06:03 | 29.76335 | -79.00757 | 36116 ft | 451 kts | 202° |
| 2026-05-08 06:03 | 29.70052 | -79.01692 | 36110 ft | 463 kts | 188° |
| 2026-05-08 06:04 | 29.63727 | -79.02544 | 36100 ft | 455 kts | 198° |
| 2026-05-08 06:04 | 29.57546 | -79.04046 | 36096 ft | 454 kts | 198° |
| 2026-05-08 06:05 | 29.51358 | -79.05394 | 36095 ft | 457 kts | 196° |
| 2026-05-08 06:05 | 29.45058 | -79.06504 | 36098 ft | 459 kts | 194° |
| 2026-05-08 06:06 | 29.38739 | -79.07552 | 36096 ft | 458 kts | 195° |
| 2026-05-08 06:06 | 29.32436 | -79.08646 | 36098 ft | 458 kts | 195° |
| 2026-05-08 06:07 | 29.26149 | -79.09770 | 36094 ft | 457 kts | 195° |
| 2026-05-08 06:07 | 29.19863 | -79.10895 | 36090 ft | 457 kts | 195° |
| 2026-05-08 06:08 | 29.13576 | -79.12012 | 36086 ft | 457 kts | 195° |
| 2026-05-08 06:08 | 29.07284 | -79.13129 | 36085 ft | 457 kts | 195° |
| 2026-05-08 06:09 | 29.00995 | -79.14236 | 36087 ft | 458 kts | 195° |
| 2026-05-08 06:09 | 28.94694 | -79.15354 | 36088 ft | 457 kts | 195° |
| 2026-05-08 06:10 | 28.88400 | -79.16467 | 36088 ft | 458 kts | 195° |
| 2026-05-08 06:10 | 28.82143 | -79.17557 | 36089 ft | 458 kts | 195° |
| 2026-05-08 06:11 | 28.75850 | -79.18658 | 36089 ft | 457 kts | 195° |
| 2026-05-08 06:11 | 28.69564 | -79.19771 | 36086 ft | 457 kts | 195° |
| 2026-05-08 06:12 | 28.63273 | -79.20877 | 36080 ft | 457 kts | 195° |
| 2026-05-08 06:12 | 28.56972 | -79.21979 | 36076 ft | 457 kts | 195° |
| 2026-05-08 06:13 | 28.50683 | -79.23072 | 36071 ft | 457 kts | 195° |
| 2026-05-08 06:13 | 28.44388 | -79.24169 | 36070 ft | 457 kts | 195° |
| 2026-05-08 06:14 | 28.38101 | -79.25275 | 36061 ft | 457 kts | 195° |
| 2026-05-08 06:14 | 28.31879 | -79.26462 | 36061 ft | 452 kts | 200° |
| 2026-05-08 06:15 | 28.25845 | -79.28406 | 36055 ft | 451 kts | 202° |
| 2026-05-08 06:15 | 28.19816 | -79.30366 | 36059 ft | 451 kts | 202° |
| 2026-05-08 06:16 | 28.13784 | -79.32320 | 36060 ft | 451 kts | 202° |
| 2026-05-08 06:16 | 28.07745 | -79.34268 | 36059 ft | 451 kts | 202° |
| 2026-05-08 06:17 | 27.98689 | -79.37206 | 36062 ft | 451 kts | 202° |
| 2026-05-08 06:17 | 27.92657 | -79.39162 | 36065 ft | 451 kts | 202° |
| 2026-05-08 06:18 | 27.86623 | -79.41106 | 36070 ft | 451 kts | 201° |
| 2026-05-08 06:18 | 27.80589 | -79.43045 | 36074 ft | 451 kts | 202° |
| 2026-05-08 06:19 | 27.74555 | -79.44989 | 35563 ft | 454 kts | 201° |
| 2026-05-08 06:19 | 27.71477 | -79.45985 | 34390 ft | 466 kts | 201° |
| 2026-05-08 06:19 | 27.68386 | -79.46985 | 33544 ft | 469 kts | 201° |
| 2026-05-08 06:20 | 27.65262 | -79.47986 | 33049 ft | 464 kts | 200° |
| 2026-05-08 06:20 | 27.62141 | -79.48978 | 32230 ft | 466 kts | 200° |
| 2026-05-08 06:20 | 27.59018 | -79.49972 | 31528 ft | 465 kts | 200° |
| 2026-05-08 06:20 | 27.55920 | -79.50962 | 30960 ft | 461 kts | 200° |
| 2026-05-08 06:21 | 27.52851 | -79.51944 | 30378 ft | 457 kts | 200° |
| 2026-05-08 06:21 | 27.49803 | -79.52921 | 29792 ft | 453 kts | 200° |
| 2026-05-08 06:21 | 27.46783 | -79.53891 | 29198 ft | 449 kts | 200° |
| 2026-05-08 06:21 | 27.43790 | -79.54851 | 28635 ft | 445 kts | 200° |
| 2026-05-08 06:22 | 27.40829 | -79.55798 | 28067 ft | 441 kts | 200° |
| 2026-05-08 06:22 | 27.37907 | -79.56727 | 27713 ft | 431 kts | 200° |
| 2026-05-08 06:22 | 27.35045 | -79.57629 | 27171 ft | 422 kts | 200° |
| 2026-05-08 06:22 | 27.32238 | -79.58510 | 26381 ft | 414 kts | 200° |
| 2026-05-08 06:23 | 27.29475 | -79.59375 | 25873 ft | 412 kts | 200° |
| 2026-05-08 06:23 | 27.26717 | -79.60242 | 25336 ft | 410 kts | 200° |
| 2026-05-08 06:23 | 27.23978 | -79.61104 | 24812 ft | 408 kts | 200° |
| 2026-05-08 06:23 | 27.21256 | -79.61961 | 24275 ft | 405 kts | 200° |
| 2026-05-08 06:24 | 27.18554 | -79.62812 | 23755 ft | 402 kts | 200° |
| 2026-05-08 06:24 | 27.15905 | -79.63652 | 23241 ft | 399 kts | 200° |
| 2026-05-08 06:24 | 27.13242 | -79.64502 | 22726 ft | 397 kts | 200° |
| 2026-05-08 06:24 | 27.10591 | -79.65354 | 22208 ft | 396 kts | 200° |
| 2026-05-08 06:25 | 27.07950 | -79.66206 | 21702 ft | 394 kts | 200° |
| 2026-05-08 06:25 | 27.05319 | -79.67054 | 21192 ft | 391 kts | 200° |
| 2026-05-08 06:25 | 27.02712 | -79.67893 | 20688 ft | 389 kts | 200° |
| 2026-05-08 06:25 | 27.00120 | -79.68721 | 20188 ft | 386 kts | 200° |
| 2026-05-08 06:26 | 26.97543 | -79.69541 | 19691 ft | 383 kts | 200° |
| 2026-05-08 06:26 | 26.94991 | -79.70352 | 19198 ft | 380 kts | 199° |
| 2026-05-08 06:26 | 26.92462 | -79.71156 | 18698 ft | 376 kts | 199° |
| 2026-05-08 06:26 | 26.89945 | -79.71959 | 18220 ft | 373 kts | 199° |
| 2026-05-08 06:27 | 26.87461 | -79.72749 | 17793 ft | 369 kts | 199° |
| 2026-05-08 06:27 | 26.85010 | -79.73526 | 17383 ft | 364 kts | 199° |
| 2026-05-08 06:27 | 26.82577 | -79.74297 | 16917 ft | 361 kts | 199° |
| 2026-05-08 06:27 | 26.80165 | -79.75063 | 16395 ft | 360 kts | 199° |
| 2026-05-08 06:28 | 26.77773 | -79.75820 | 15979 ft | 355 kts | 199° |
| 2026-05-08 06:28 | 26.75394 | -79.76575 | 15516 ft | 353 kts | 199° |
| 2026-05-08 06:28 | 26.73042 | -79.77321 | 15019 ft | 351 kts | 199° |
| 2026-05-08 06:28 | 26.70739 | -79.78053 | 14596 ft | 347 kts | 199° |
| 2026-05-08 06:29 | 26.68436 | -79.78843 | 14163 ft | 343 kts | 202° |
| 2026-05-08 06:29 | 26.66189 | -79.79720 | 13698 ft | 341 kts | 204° |
| 2026-05-08 06:29 | 26.64005 | -79.80629 | 13529 ft | 330 kts | 204° |
| 2026-05-08 06:29 | 26.61874 | -79.81532 | 13185 ft | 326 kts | 204° |
| 2026-05-08 06:30 | 26.59762 | -79.82426 | 12809 ft | 323 kts | 204° |
| 2026-05-08 06:30 | 26.57663 | -79.83306 | 12428 ft | 321 kts | 204° |
| 2026-05-08 06:30 | 26.55570 | -79.84170 | 12037 ft | 319 kts | 204° |
| 2026-05-08 06:30 | 26.53523 | -79.85059 | 11839 ft | 311 kts | 206° |
| 2026-05-08 06:31 | 26.51546 | -79.85975 | 11587 ft | 305 kts | 207° |
| 2026-05-08 06:31 | 26.49606 | -79.86901 | 11255 ft | 302 kts | 207° |
| 2026-05-08 06:31 | 26.47684 | -79.87828 | 10914 ft | 300 kts | 207° |
| 2026-05-08 06:31 | 26.46421 | -79.88438 | 10703 ft | 298 kts | 207° |
| 2026-05-08 06:32 | 26.44521 | -79.89348 | 10364 ft | 296 kts | 207° |
| 2026-05-08 06:32 | 26.42628 | -79.90246 | 10023 ft | 294 kts | 207° |
| 2026-05-08 06:32 | 26.40751 | -79.91130 | 9688 ft | 292 kts | 207° |
| 2026-05-08 06:32 | 26.38883 | -79.92008 | 9356 ft | 290 kts | 207° |
| 2026-05-08 06:33 | 26.37116 | -79.93040 | 9022 ft | 285 kts | 214° |
| 2026-05-08 06:33 | 26.35405 | -79.94145 | 8689 ft | 283 kts | 214° |
| 2026-05-08 06:33 | 26.33705 | -79.95236 | 8357 ft | 281 kts | 214° |
| 2026-05-08 06:33 | 26.32015 | -79.96321 | 8017 ft | 279 kts | 214° |
| 2026-05-08 06:34 | 26.30336 | -79.97399 | 7681 ft | 278 kts | 214° |
| 2026-05-08 06:34 | 26.28663 | -79.98472 | 7355 ft | 276 kts | 214° |
| 2026-05-08 06:34 | 26.27000 | -79.99536 | 7035 ft | 274 kts | 213° |
| 2026-05-08 06:34 | 26.25351 | -80.00591 | 6714 ft | 272 kts | 213° |
| 2026-05-08 06:35 | 26.23724 | -80.01637 | 6463 ft | 268 kts | 213° |
| 2026-05-08 06:35 | 26.22138 | -80.02658 | 6278 ft | 266 kts | 214° |
| 2026-05-08 06:35 | 26.20520 | -80.03700 | 6092 ft | 265 kts | 213° |
| 2026-05-08 06:35 | 26.19013 | -80.04844 | 5925 ft | 260 kts | 225° |
| 2026-05-08 06:36 | 26.17884 | -80.06353 | 5757 ft | 256 kts | 241° |
| 2026-05-08 06:36 | 26.17172 | -80.08155 | 5587 ft | 254 kts | 253° |
| 2026-05-08 06:36 | 26.16617 | -80.10022 | 5410 ft | 254 kts | 252° |
| 2026-05-08 06:36 | 26.16053 | -80.11888 | 5251 ft | 254 kts | 252° |
| 2026-05-08 06:37 | 26.15487 | -80.13753 | 5083 ft | 254 kts | 252° |
| 2026-05-08 06:37 | 26.15055 | -80.15649 | 4917 ft | 252 kts | 264° |
| 2026-05-08 06:37 | 26.15012 | -80.17694 | 4750 ft | 253 kts | 270° |
| 2026-05-08 06:37 | 26.15022 | -80.19649 | 4584 ft | 252 kts | 271° |
| 2026-05-08 06:38 | 26.15034 | -80.21597 | 4413 ft | 251 kts | 270° |
| 2026-05-08 06:38 | 26.15047 | -80.23538 | 4136 ft | 251 kts | 270° |
| 2026-05-08 06:38 | 26.15059 | -80.25479 | 3798 ft | 250 kts | 270° |
| 2026-05-08 06:38 | 26.15080 | -80.27387 | 3640 ft | 242 kts | 271° |
| 2026-05-08 06:39 | 26.15097 | -80.29226 | 3518 ft | 233 kts | 271° |
| 2026-05-08 06:39 | 26.15099 | -80.30993 | 3392 ft | 224 kts | 270° |
| 2026-05-08 06:39 | 26.15088 | -80.32688 | 3265 ft | 214 kts | 270° |
| 2026-05-08 06:39 | 26.15068 | -80.34310 | 3139 ft | 205 kts | 270° |
| 2026-05-08 06:40 | 26.15043 | -80.35871 | 2944 ft | 200 kts | 270° |
| 2026-05-08 06:40 | 26.15018 | -80.37415 | 2668 ft | 199 kts | 270° |
| 2026-05-08 06:40 | 26.14990 | -80.38959 | 2434 ft | 197 kts | 270° |
| 2026-05-08 06:40 | 26.14959 | -80.40451 | 2303 ft | 189 kts | 270° |
| 2026-05-08 06:41 | 26.14687 | -80.41861 | 2106 ft | 188 kts | 240° |
| 2026-05-08 06:41 | 26.13709 | -80.42739 | 2006 ft | 179 kts | 200° |
| 2026-05-08 06:41 | 26.12545 | -80.42796 | 1920 ft | 161 kts | 176° |
| 2026-05-08 06:41 | 26.11474 | -80.42552 | 1845 ft | 155 kts | 156° |
| 2026-05-08 06:42 | 26.10690 | -80.41772 | 1794 ft | 152 kts | 117° |
| 2026-05-08 06:42 | 26.10285 | -80.40695 | 1795 ft | 150 kts | 110° |
| 2026-05-08 06:42 | 26.09906 | -80.39628 | 1797 ft | 150 kts | 110° |
| 2026-05-08 06:42 | 26.09522 | -80.38545 | 1799 ft | 150 kts | 110° |
| 2026-05-08 06:43 | 26.09141 | -80.37467 | 1804 ft | 148 kts | 112° |
| 2026-05-08 06:43 | 26.08777 | -80.36432 | 1799 ft | 141 kts | 113° |
| 2026-05-08 06:43 | 26.08423 | -80.35426 | 1798 ft | 139 kts | 113° |
| 2026-05-08 06:43 | 26.08074 | -80.34433 | 1796 ft | 138 kts | 113° |
| 2026-05-08 06:44 | 26.07847 | -80.33402 | 1800 ft | 139 kts | 93° |
| 2026-05-08 06:44 | 26.07814 | -80.32326 | 1796 ft | 139 kts | 94° |
| 2026-05-08 06:44 | 26.07787 | -80.31253 | 1795 ft | 139 kts | 94° |
| 2026-05-08 06:44 | 26.07772 | -80.30178 | 1796 ft | 139 kts | 93° |
| 2026-05-08 06:45 | 26.07761 | -80.29101 | 1797 ft | 139 kts | 93° |
| 2026-05-08 06:45 | 26.07754 | -80.28023 | 1797 ft | 139 kts | 93° |
| 2026-05-08 06:45 | 26.07747 | -80.26942 | 1758 ft | 140 kts | 93° |
| 2026-05-08 06:45 | 26.07742 | -80.25860 | 1631 ft | 139 kts | 92° |
| 2026-05-08 06:46 | 26.07737 | -80.24791 | 1473 ft | 137 kts | 91° |
| 2026-05-08 06:46 | 26.07731 | -80.23731 | 1300 ft | 137 kts | 90° |
| 2026-05-08 06:46 | 26.07726 | -80.22666 | 1121 ft | 140 kts | 88° |
| 2026-05-08 06:46 | 26.07721 | -80.21571 | 936 ft | 143 kts | 88° |
| 2026-05-08 06:47 | 26.07715 | -80.20459 | 748 ft | 144 kts | 88° |
| 2026-05-08 06:47 | 26.07709 | -80.19348 | 563 ft | 143 kts | 88° |
| 2026-05-08 06:47 | 26.07703 | -80.18242 | 369 ft | 143 kts | 88° |
| 2026-05-08 06:47 | 26.07697 | -80.17142 | 179 ft | 142 kts | 88° |
| 2026-05-08 06:48 | 26.07691 | -80.16047 | 29 ft | 136 kts | 90° |
| 2026-05-08 06:48 | 26.07687 | -80.15271 | 18 ft | 58 kts | 90° |
| 2026-05-08 06:48 | 26.07686 | -80.15123 | 17 ft | 0 kts | 90° |